Time;durP1;ratioP1;P1;durP2;ratioP2;P2;SDS_P1;SDS_P2;PMS_P1;PMS_P2;Temp;Humidity;BMP_temperature;BMP_pressure;BME280_temperature;BME280_humidity;BME280_pressure;Samples;Min_cycle;Max_cycle;Signal;HPM_P1;HPM_P2
2023/06/02 00:02:01;;;;;;;10.70;3.55;;;;;;;15.37;53.76;100274.94;5053349;28;20037;-74
2023/06/02 00:04:26;;;;;;;7.28;3.72;;;;;;;15.09;53.95;100270.97;5053399;28;20098;-74
2023/06/02 00:06:53;;;;;;;11.27;4.00;;;;;;;15.00;54.23;100271.56;5053190;28;20035;-74
2023/06/02 00:09:19;;;;;;;7.97;3.92;;;;;;;15.15;54.37;100272.59;5052994;28;21292;-75
2023/06/02 00:11:44;;;;;;;14.45;3.60;;;;;;;15.16;54.03;100268.72;5052984;28;20115;-75
2023/06/02 00:14:09;;;;;;;8.95;3.75;;;;;;;15.28;53.92;100277.44;5053005;28;20112;-76
2023/06/02 00:16:45;;;;;;;7.73;3.87;;;;;;;15.22;54.07;100273.09;5052886;28;20032;-74
2023/06/02 00:19:12;;;;;;;5.90;3.20;;;;;;;15.17;54.62;100271.19;5052150;28;20289;-77
2023/06/02 00:21:37;;;;;;;10.15;3.53;;;;;;;15.27;53.94;100270.31;5053250;28;20483;-75
2023/06/02 00:24:03;;;;;;;9.73;3.00;;;;;;;15.24;53.79;100270.88;5053206;28;20123;-75
2023/06/02 00:26:28;;;;;;;9.80;3.38;;;;;;;15.40;53.41;100276.25;5053458;28;20029;-75
2023/06/02 00:28:55;;;;;;;10.90;4.35;;;;;;;15.31;53.50;100267.81;5052417;28;20041;-74
2023/06/02 00:31:21;;;;;;;12.82;4.20;;;;;;;15.14;54.11;100270.94;5053055;28;20033;-75
2023/06/02 00:33:46;;;;;;;8.40;3.88;;;;;;;14.66;55.55;100278.53;5053497;28;20078;-75
2023/06/02 00:36:12;;;;;;;8.18;3.42;;;;;;;14.81;54.74;100274.91;5053283;28;20076;-75
2023/06/02 00:38:37;;;;;;;15.35;4.43;;;;;;;14.91;54.36;100265.00;5052667;28;20037;-75
2023/06/02 00:41:03;;;;;;;9.57;4.45;;;;;;;14.89;54.54;100275.47;5052682;28;20452;-76
2023/06/02 00:43:28;;;;;;;10.98;3.55;;;;;;;14.85;54.44;100280.69;5053081;28;20064;-75
2023/06/02 00:45:53;;;;;;;9.70;3.80;;;;;;;14.85;54.96;100268.91;5053118;28;20032;-75
2023/06/02 00:48:18;;;;;;;12.17;3.60;;;;;;;15.00;54.36;100277.06;5052834;28;20345;-75
2023/06/02 00:50:44;;;;;;;9.88;4.20;;;;;;;14.83;54.40;100288.38;5053070;28;20989;-74
2023/06/02 00:53:11;;;;;;;15.98;4.45;;;;;;;14.81;54.28;100277.66;5053244;28;20146;-75
2023/06/02 00:55:36;;;;;;;8.52;3.78;;;;;;;14.98;54.20;100270.19;5052996;28;20474;-75
2023/06/02 00:58:03;;;;;;;11.48;3.58;;;;;;;14.85;54.21;100277.13;5052582;28;20036;-75
2023/06/02 01:00:33;;;;;;;7.40;3.50;;;;;;;14.89;53.94;100278.22;5053782;28;20043;-75
2023/06/02 01:02:59;;;;;;;15.80;4.55;;;;;;;14.90;53.72;100269.69;5053046;28;20024;-75
2023/06/02 01:05:26;;;;;;;6.70;3.25;;;;;;;14.71;54.48;100283.19;5052802;28;20025;-75
2023/06/02 01:07:58;;;;;;;11.27;4.15;;;;;;;14.52;54.48;100272.81;5052972;28;20028;-75
2023/06/02 01:10:24;;;;;;;10.07;4.43;;;;;;;14.64;54.31;100278.00;5052895;28;20493;-75
2023/06/02 01:12:50;;;;;;;13.20;3.25;;;;;;;14.69;54.29;100274.41;5052724;28;20032;-74
2023/06/02 01:15:15;;;;;;;13.13;3.50;;;;;;;14.50;54.38;100280.53;5052483;28;20512;-75
2023/06/02 01:17:45;;;;;;;11.25;4.10;;;;;;;14.47;54.64;100283.81;5053116;28;20747;-74
2023/06/02 01:20:12;;;;;;;11.50;4.25;;;;;;;14.47;53.74;100276.41;5051895;28;20036;-74
2023/06/02 01:22:47;;;;;;;7.97;3.75;;;;;;;14.33;53.56;100276.16;5053087;28;20036;-74
2023/06/02 01:25:27;;;;;;;9.60;4.30;;;;;;;14.41;53.43;100272.03;5052526;28;20878;-74
2023/06/02 01:27:52;;;;;;;9.35;3.70;;;;;;;14.23;53.61;100265.22;5053210;28;20033;-76
2023/06/02 01:30:19;;;;;;;14.77;3.90;;;;;;;14.24;53.96;100266.84;5056693;28;20047;-75
2023/06/02 01:33:21;;;;;;;9.00;4.30;;;;;;;14.41;52.98;100260.22;5056374;28;20509;-74
2023/06/02 01:35:59;;;;;;;11.15;4.65;;;;;;;14.41;52.95;100263.81;5056765;28;20175;-74
2023/06/02 01:38:26;;;;;;;15.75;3.85;;;;;;;14.13;53.64;100260.56;5055857;28;20086;-74
2023/06/02 01:40:54;;;;;;;11.15;4.75;;;;;;;14.09;53.46;100263.06;5056686;28;21167;-74
2023/06/02 01:43:19;;;;;;;13.00;5.43;;;;;;;14.29;53.50;100263.28;5056328;28;20064;-75
2023/06/02 01:45:45;;;;;;;12.55;4.50;;;;;;;14.58;52.31;100262.66;5056517;28;20550;-74
2023/06/02 01:48:10;;;;;;;16.80;4.07;;;;;;;14.52;52.48;100264.56;5055848;28;20040;-75
2023/06/02 01:50:37;;;;;;;15.75;4.72;;;;;;;14.31;52.93;100261.91;5056721;28;20119;-74
2023/06/02 01:53:03;;;;;;;10.35;3.78;;;;;;;14.35;53.31;100256.69;5055880;28;21253;-74
2023/06/02 01:55:28;;;;;;;8.13;4.05;;;;;;;14.32;53.13;100260.00;5056433;28;20097;-75
2023/06/02 01:57:53;;;;;;;9.30;3.47;;;;;;;14.44;52.32;100263.22;5054459;28;20063;-75
2023/06/02 02:00:19;;;;;;;8.60;3.72;;;;;;;14.34;53.17;100260.50;5056128;28;20265;-74
2023/06/02 02:02:45;;;;;;;14.00;4.88;;;;;;;14.42;53.18;100250.91;5055926;28;20178;-74
2023/06/02 02:05:11;;;;;;;13.15;5.72;;;;;;;14.51;52.44;100260.19;5055903;28;20032;-74
2023/06/02 02:07:37;;;;;;;13.10;4.45;;;;;;;14.38;52.03;100267.09;5056091;28;20024;-74
2023/06/02 02:10:03;;;;;;;12.45;4.43;;;;;;;14.26;52.92;100261.09;5055998;28;20162;-75
2023/06/02 02:12:28;;;;;;;12.23;3.58;;;;;;;14.17;52.91;100261.66;5056286;28;20059;-76
2023/06/02 02:14:56;;;;;;;13.77;5.35;;;;;;;14.18;52.91;100265.22;5055734;28;20032;-76
2023/06/02 02:17:24;;;;;;;14.55;5.30;;;;;;;14.26;52.82;100267.38;5055957;28;20037;-76
2023/06/02 02:19:50;;;;;;;19.73;5.45;;;;;;;14.22;53.17;100264.38;5055533;28;20062;-76
2023/06/02 02:22:16;;;;;;;11.43;4.90;;;;;;;14.03;53.48;100275.13;5053951;28;20057;-76
2023/06/02 02:24:41;;;;;;;15.00;5.00;;;;;;;13.89;54.22;100272.91;5054602;28;20029;-76
2023/06/02 02:27:08;;;;;;;10.57;4.67;;;;;;;14.05;53.51;100270.19;5054225;28;20671;-76
2023/06/02 02:29:33;;;;;;;9.77;4.72;;;;;;;14.06;53.14;100273.72;5053865;28;20262;-76
2023/06/02 02:31:59;;;;;;;11.25;4.20;;;;;;;13.86;53.00;100270.75;5053938;28;21237;-76
2023/06/02 02:34:25;;;;;;;12.70;4.28;;;;;;;13.93;53.01;100277.88;5054329;28;20122;-76
2023/06/02 02:36:51;;;;;;;14.55;4.10;;;;;;;13.95;53.11;100275.66;5054372;28;20520;-76
2023/06/02 02:39:17;;;;;;;10.52;4.13;;;;;;;14.03;52.83;100280.59;5053293;28;21194;-76
2023/06/02 02:41:42;;;;;;;15.13;5.68;;;;;;;14.02;53.33;100281.69;5054513;28;20083;-76
2023/06/02 02:44:07;;;;;;;10.27;4.43;;;;;;;14.03;52.84;100280.59;5056258;28;20486;-75
2023/06/02 02:46:33;;;;;;;13.75;4.70;;;;;;;13.97;53.54;100281.69;5054065;28;20250;-75
2023/06/02 02:48:58;;;;;;;21.70;4.93;;;;;;;14.14;52.92;100283.34;5053653;28;20037;-75
2023/06/02 02:51:23;;;;;;;12.33;4.97;;;;;;;13.88;53.18;100276.75;5054036;28;20308;-75
2023/06/02 02:53:48;;;;;;;17.93;5.03;;;;;;;13.82;53.23;100288.00;5054059;28;20280;-75
2023/06/02 02:56:14;;;;;;;17.73;4.90;;;;;;;13.93;53.51;100286.09;5054304;28;20709;-75
2023/06/02 02:58:40;;;;;;;9.98;5.57;;;;;;;13.97;52.83;100284.44;5053674;28;20277;-75
2023/06/02 03:01:08;;;;;;;9.35;4.95;;;;;;;14.01;53.08;100280.84;5053808;28;20099;-75
2023/06/02 03:03:33;;;;;;;20.77;6.72;;;;;;;13.91;53.74;100282.78;5054122;28;20032;-74
2023/06/02 03:06:01;;;;;;;13.73;5.00;;;;;;;14.01;53.39;100285.53;5052611;28;20029;-74
2023/06/02 03:08:27;;;;;;;10.90;4.30;;;;;;;13.99;53.21;100282.25;5053100;28;20064;-75
2023/06/02 03:10:53;;;;;;;9.10;4.35;;;;;;;14.05;52.94;100283.88;5053732;28;20124;-75
2023/06/02 03:13:18;;;;;;;8.63;4.47;;;;;;;13.99;53.12;100280.31;5053907;28;20027;-75
2023/06/02 03:15:43;;;;;;;11.17;4.33;;;;;;;14.16;52.81;100289.34;5053996;28;20032;-74
2023/06/02 03:18:09;;;;;;;16.02;6.47;;;;;;;14.07;52.70;100289.91;5053096;28;20261;-75
2023/06/02 03:20:36;;;;;;;15.98;5.13;;;;;;;14.11;52.37;100295.66;5015971;28;1076575;-74
2023/06/02 03:23:02;;;;;;;18.48;5.85;;;;;;;14.03;53.16;100294.31;5053458;28;20048;-75
2023/06/02 03:25:27;;;;;;;15.63;4.13;;;;;;;14.16;52.62;100297.56;5054784;28;20088;-74
2023/06/02 03:27:52;;;;;;;21.90;5.07;;;;;;;14.14;52.40;100295.09;5054095;28;20040;-75
2023/06/02 03:30:18;;;;;;;20.08;5.25;;;;;;;13.69;52.89;100292.13;5054329;28;20388;-74
2023/06/02 03:32:43;;;;;;;12.88;5.18;;;;;;;13.45;53.54;100298.88;5054398;28;20020;-74
2023/06/02 03:35:08;;;;;;;11.77;4.67;;;;;;;13.60;53.22;100292.66;5054351;28;20032;-75
2023/06/02 03:37:34;;;;;;;10.90;4.53;;;;;;;13.73;53.31;100291.28;5054110;28;20266;-75
2023/06/02 03:39:59;;;;;;;15.02;4.47;;;;;;;13.79;52.91;100289.34;5053837;28;20032;-74
2023/06/02 03:42:24;;;;;;;10.70;5.13;;;;;;;13.73;52.93;100293.22;5054434;28;20056;-74
2023/06/02 03:44:50;;;;;;;7.27;3.77;;;;;;;13.74;53.03;100298.41;5054188;28;20801;-74
2023/06/02 03:47:15;;;;;;;15.20;5.57;;;;;;;14.03;51.79;100304.44;5054094;28;20281;-74
2023/06/02 03:49:41;;;;;;;13.52;5.40;;;;;;;14.05;51.78;100308.56;5053846;28;20972;-74
2023/06/02 03:52:06;;;;;;;13.73;5.35;;;;;;;13.86;51.79;100298.16;5053204;28;20443;-75
2023/06/02 03:54:32;;;;;;;12.77;5.97;;;;;;;14.03;51.76;100298.97;5053997;28;20067;-74
2023/06/02 03:56:57;;;;;;;12.25;5.07;;;;;;;13.84;51.74;100303.06;5054239;28;20043;-74
2023/06/02 03:59:22;;;;;;;11.82;5.32;;;;;;;13.83;51.57;100301.41;5053330;28;20056;-74
2023/06/02 04:01:48;;;;;;;17.60;5.55;;;;;;;14.03;51.86;100309.94;5054238;28;20079;-74
2023/06/02 04:04:13;;;;;;;11.70;5.77;;;;;;;14.14;51.84;100316.25;5053841;28;20028;-74
2023/06/02 04:06:41;;;;;;;11.48;5.13;;;;;;;14.01;52.10;100315.69;5054156;28;20298;-75
2023/06/02 04:09:10;;;;;;;14.07;4.20;;;;;;;14.04;52.27;100312.38;5052810;28;20094;-74
2023/06/02 04:11:35;;;;;;;15.48;5.55;;;;;;;14.03;52.08;100313.50;5051782;28;20037;-74
2023/06/02 04:14:02;;;;;;;11.60;5.10;;;;;;;13.83;52.41;100306.91;5053412;28;20040;-74
2023/06/02 04:16:27;;;;;;;12.48;4.40;;;;;;;13.63;52.53;100314.00;5053871;28;20041;-74
2023/06/02 04:18:53;;;;;;;12.43;5.30;;;;;;;13.81;52.25;100317.31;5053206;28;20028;-75
2023/06/02 04:21:18;;;;;;;17.10;5.22;;;;;;;13.74;52.24;100314.03;5053288;28;20067;-74
2023/06/02 04:23:43;;;;;;;10.55;5.05;;;;;;;13.60;52.07;100322.78;5053486;28;20036;-74
2023/06/02 04:26:09;;;;;;;21.60;5.80;;;;;;;13.69;51.89;100325.78;5053297;28;20032;-74
2023/06/02 04:28:34;;;;;;;16.53;6.03;;;;;;;13.72;52.26;100333.47;5053148;28;20269;-74
2023/06/02 04:31:01;;;;;;;17.90;5.43;;;;;;;13.93;51.74;100332.69;5053591;28;20658;-74
2023/06/02 04:33:27;;;;;;;15.73;6.18;;;;;;;14.07;51.62;100332.94;5053369;28;20557;-74
2023/06/02 04:35:52;;;;;;;16.90;5.00;;;;;;;14.09;51.07;100331.59;5053423;28;20071;-75
2023/06/02 04:38:18;;;;;;;9.98;4.32;;;;;;;14.12;51.30;100331.03;5052363;28;20759;-74
2023/06/02 04:40:43;;;;;;;16.90;6.22;;;;;;;14.27;50.80;100337.59;5053203;28;20032;-75
2023/06/02 04:43:08;;;;;;;13.60;5.95;;;;;;;14.05;51.80;100332.41;5052825;28;20576;-75
2023/06/02 04:45:34;;;;;;;32.17;6.38;;;;;;;14.08;51.50;100329.94;5052995;28;20847;-74
2023/06/02 04:48:01;;;;;;;18.00;5.60;;;;;;;14.14;51.66;100324.47;5052581;28;20722;-75
2023/06/02 04:50:27;;;;;;;17.45;4.82;;;;;;;13.84;51.57;100325.00;5052963;28;20036;-74
2023/06/02 04:52:53;;;;;;;14.30;5.13;;;;;;;13.95;51.92;100331.28;5053268;28;20052;-75
2023/06/02 04:55:18;;;;;;;16.67;5.53;;;;;;;14.06;51.77;100326.63;5052818;28;20028;-74
2023/06/02 04:57:43;;;;;;;16.63;5.65;;;;;;;13.96;51.94;100324.72;5053297;28;20023;-75
2023/06/02 05:00:10;;;;;;;21.25;6.28;;;;;;;14.01;51.53;100326.66;5052291;28;20058;-75
2023/06/02 05:02:36;;;;;;;13.18;4.80;;;;;;;14.07;51.26;100322.81;5052627;28;20036;-75
2023/06/02 05:05:02;;;;;;;17.90;6.38;;;;;;;14.16;51.31;100330.47;5052571;28;20033;-74
2023/06/02 05:07:28;;;;;;;11.82;4.60;;;;;;;14.30;51.26;100331.56;5052371;28;20603;-74
2023/06/02 05:09:53;;;;;;;18.20;4.97;;;;;;;14.09;51.69;100331.59;5052466;28;20024;-75
2023/06/02 05:12:19;;;;;;;11.43;5.63;;;;;;;14.21;51.83;100325.00;5052671;28;20033;-74
2023/06/02 05:14:44;;;;;;;16.77;5.70;;;;;;;14.26;51.10;100326.91;5052822;28;20037;-74
2023/06/02 05:17:10;;;;;;;16.50;5.85;;;;;;;14.27;51.12;100326.63;5052705;28;20146;-74
2023/06/02 05:19:36;;;;;;;14.80;6.15;;;;;;;14.18;51.82;100328.28;5052443;28;20041;-74
2023/06/02 05:22:02;;;;;;;11.68;5.38;;;;;;;14.31;51.24;100327.72;5052583;28;20045;-74
2023/06/02 05:24:28;;;;;;;11.38;4.68;;;;;;;14.14;52.08;100328.00;5052571;28;20028;-73
2023/06/02 05:26:53;;;;;;;24.15;5.85;;;;;;;14.17;52.02;100332.13;5052480;28;20031;-74
2023/06/02 05:29:18;;;;;;;16.02;5.88;;;;;;;14.31;51.41;100325.00;5052234;28;20566;-74
2023/06/02 05:31:44;;;;;;;12.53;4.83;;;;;;;14.39;51.39;100325.50;5052681;28;20032;-74
2023/06/02 05:34:09;;;;;;;14.15;5.20;;;;;;;14.23;52.04;100336.50;5052730;28;20723;-74
2023/06/02 05:36:35;;;;;;;14.10;5.03;;;;;;;14.46;51.43;100332.34;5052614;28;20039;-75
2023/06/02 05:39:00;;;;;;;15.63;5.65;;;;;;;14.32;52.25;100328.56;5051338;28;20815;-75
2023/06/02 05:41:28;;;;;;;12.57;5.43;;;;;;;14.33;52.69;100336.50;5051964;28;20037;-75
2023/06/02 05:43:53;;;;;;;12.23;4.93;;;;;;;14.31;52.37;100332.38;5051500;28;20071;-75
2023/06/02 05:46:19;;;;;;;12.30;4.93;;;;;;;14.44;51.80;100333.75;5050817;28;20155;-75
2023/06/02 05:48:44;;;;;;;10.82;5.20;;;;;;;14.55;51.52;100331.78;5051593;28;20040;-73
2023/06/02 05:51:09;;;;;;;16.38;5.70;;;;;;;14.65;51.34;100330.94;5051510;28;20037;-75
2023/06/02 05:53:35;;;;;;;13.97;5.33;;;;;;;14.61;51.27;100330.69;5050493;28;20466;-74
2023/06/02 05:56:00;;;;;;;10.57;4.57;;;;;;;14.50;51.84;100329.91;5051957;28;20277;-75
2023/06/02 05:58:25;;;;;;;17.30;5.47;;;;;;;14.51;51.67;100331.53;5051672;28;20258;-74
2023/06/02 06:00:51;;;;;;;10.48;5.07;;;;;;;14.36;52.32;100321.41;5051836;28;20262;-74
2023/06/02 06:03:16;;;;;;;21.30;4.93;;;;;;;14.51;51.84;100331.53;5052224;28;20021;-74
2023/06/02 06:05:41;;;;;;;12.03;4.97;;;;;;;14.28;52.89;100333.75;5051984;28;20503;-74
2023/06/02 06:08:07;;;;;;;12.23;4.53;;;;;;;14.38;52.47;100335.66;5051568;28;20253;-74
2023/06/02 06:10:32;;;;;;;18.17;5.70;;;;;;;14.24;52.39;100336.22;5051722;28;20028;-74
2023/06/02 06:12:57;;;;;;;16.20;5.57;;;;;;;14.45;52.40;100338.13;5051381;28;20285;-71
2023/06/02 06:15:22;;;;;;;16.17;5.07;;;;;;;14.42;52.99;100333.19;5054764;28;20264;-71
2023/06/02 06:17:52;;;;;;;15.20;6.10;;;;;;;14.32;52.61;100337.59;5055461;28;20350;-71
2023/06/02 06:20:19;;;;;;;43.78;7.30;;;;;;;14.46;51.73;100335.09;5055233;28;20056;-71
2023/06/02 06:22:44;;;;;;;16.80;5.78;;;;;;;14.53;52.57;100339.47;5055530;28;20029;-71
2023/06/02 06:25:10;;;;;;;17.70;5.25;;;;;;;14.56;52.23;100339.72;5055504;28;20040;-72
2023/06/02 06:27:36;;;;;;;14.63;5.13;;;;;;;14.57;52.34;100335.91;5053376;28;20036;-76
2023/06/02 06:30:02;;;;;;;19.55;5.60;;;;;;;14.67;51.59;100340.53;5054872;28;20059;-75
2023/06/02 06:32:28;;;;;;;9.90;4.38;;;;;;;14.63;51.70;100344.94;5055352;28;20090;-75
2023/06/02 06:34:53;;;;;;;19.48;5.75;;;;;;;14.59;51.95;100347.44;5055148;28;20041;-74
2023/06/02 06:37:18;;;;;;;17.37;5.50;;;;;;;14.78;51.43;100346.84;5055128;28;20040;-76
2023/06/02 06:39:44;;;;;;;14.40;3.90;;;;;;;14.58;51.84;100342.22;5055109;28;20252;-85
2023/06/02 06:42:09;;;;;;;16.45;4.90;;;;;;;14.51;52.10;100355.38;5055215;28;20979;-75
2023/06/02 06:44:34;;;;;;;10.30;4.28;;;;;;;14.63;51.51;100344.13;5055582;28;20036;-75
2023/06/02 06:47:00;;;;;;;17.07;4.77;;;;;;;14.69;51.53;100351.22;5055582;28;20501;-74
2023/06/02 06:49:25;;;;;;;12.18;5.18;;;;;;;14.66;51.35;100349.06;5054731;28;20262;-74
2023/06/02 06:51:50;;;;;;;11.73;4.90;;;;;;;14.59;51.75;100347.44;5055506;28;20025;-74
2023/06/02 06:54:16;;;;;;;12.27;4.90;;;;;;;14.36;52.12;100357.06;5055524;28;20258;-74
2023/06/02 06:56:43;;;;;;;14.33;4.27;;;;;;;14.68;52.21;100357.84;5055367;28;20037;-74
2023/06/02 06:59:09;;;;;;;18.02;6.28;;;;;;;14.98;51.22;100358.88;5054500;28;20939;-74
2023/06/02 07:01:35;;;;;;;16.23;4.60;;;;;;;15.11;50.04;100362.13;5055439;28;20082;-74
2023/06/02 07:04:00;;;;;;;12.98;4.28;;;;;;;15.07;50.88;100359.13;5054778;28;20063;-75
2023/06/02 07:06:25;;;;;;;10.67;4.37;;;;;;;15.00;51.04;100359.41;5054607;28;20052;-75
2023/06/02 07:08:51;;;;;;;12.43;4.53;;;;;;;15.07;51.43;100359.13;5054720;28;20674;-71
2023/06/02 07:11:16;;;;;;;18.57;5.37;;;;;;;15.09;51.02;100354.19;5053819;28;20309;-74
2023/06/02 07:13:41;;;;;;;11.32;4.50;;;;;;;15.20;50.13;100357.69;5054024;28;21139;-74
2023/06/02 07:16:06;;;;;;;11.07;4.30;;;;;;;15.24;50.47;100364.25;5054221;28;20040;-74
2023/06/02 07:18:32;;;;;;;17.07;5.90;;;;;;;15.09;51.19;100367.91;5054076;28;20474;-74
2023/06/02 07:20:57;;;;;;;20.13;5.40;;;;;;;15.15;50.96;100361.25;5053961;28;20289;-74
2023/06/02 07:23:22;;;;;;;17.03;4.73;;;;;;;15.15;50.89;100371.44;5054207;28;20269;-74
2023/06/02 07:25:47;;;;;;;20.07;5.23;;;;;;;15.13;51.20;100359.94;5053046;28;20947;-78
2023/06/02 07:28:13;;;;;;;7.65;3.78;;;;;;;15.09;51.65;100362.41;5053943;28;20265;-74
2023/06/02 07:30:38;;;;;;;19.27;5.47;;;;;;;15.04;51.71;100365.16;5054821;28;20055;-74
2023/06/02 07:33:03;;;;;;;16.90;5.20;;;;;;;14.99;51.08;100367.94;5054427;28;20288;-74
2023/06/02 07:35:28;;;;;;;11.32;4.32;;;;;;;15.01;50.48;100368.47;5054840;28;20773;-75
2023/06/02 07:37:54;;;;;;;14.73;5.07;;;;;;;15.24;50.28;100368.91;5053920;28;20040;-74
2023/06/02 07:40:20;;;;;;;14.23;5.35;;;;;;;15.18;50.56;100373.63;5054702;28;20242;-73
2023/06/02 07:42:46;;;;;;;12.73;4.95;;;;;;;15.07;49.91;100367.38;5054576;28;20462;-72
2023/06/02 07:45:12;;;;;;;14.02;3.72;;;;;;;15.22;49.24;100371.97;5054317;28;20029;-74
2023/06/02 07:47:37;;;;;;;16.67;3.83;;;;;;;15.38;49.18;100369.97;5054730;28;20029;-73
2023/06/02 07:50:02;;;;;;;10.05;4.50;;;;;;;15.47;49.11;100364.69;5053995;28;20040;-74
2023/06/02 07:52:28;;;;;;;12.35;4.22;;;;;;;15.40;49.82;100364.16;5054463;28;20025;-72
2023/06/02 07:54:53;;;;;;;6.72;3.20;;;;;;;15.49;49.51;100376.22;5054152;28;20029;-74
2023/06/02 07:57:19;;;;;;;10.40;4.65;;;;;;;15.54;48.02;100360.81;5054115;28;20025;-74
2023/06/02 07:59:44;;;;;;;10.20;4.72;;;;;;;15.13;49.11;100373.66;5054077;28;20033;-74
2023/06/02 08:02:09;;;;;;;10.38;4.45;;;;;;;15.17;49.51;100366.50;5054130;28;20025;-74
2023/06/02 08:04:35;;;;;;;13.90;5.07;;;;;;;15.48;48.59;100368.25;5054197;28;20282;-75
2023/06/02 08:07:00;;;;;;;13.48;4.20;;;;;;;15.53;49.25;100362.75;5054275;28;20307;-74
2023/06/02 08:09:26;;;;;;;10.90;3.85;;;;;;;15.56;48.14;100369.59;5053202;28;20077;-74
2023/06/02 08:11:51;;;;;;;17.08;5.68;;;;;;;15.63;48.60;100372.84;5051852;28;20037;-73
2023/06/02 08:14:17;;;;;;;13.65;6.00;;;;;;;15.72;48.00;100367.59;5053099;28;20037;-73
2023/06/02 08:16:42;;;;;;;13.90;5.18;;;;;;;15.25;47.94;100374.16;5053693;28;20470;-74
2023/06/02 08:19:08;;;;;;;17.20;6.22;;;;;;;15.29;49.44;100383.44;5052202;28;20059;-72
2023/06/02 08:21:33;;;;;;;19.73;4.60;;;;;;;15.50;48.55;100377.84;5053237;28;20552;-73
2023/06/02 08:24:00;;;;;;;10.43;3.37;;;;;;;15.49;49.04;100386.41;5053720;28;20020;-72
2023/06/02 08:26:26;;;;;;;14.40;3.88;;;;;;;15.51;47.98;100381.44;5053858;28;20306;-73
2023/06/02 08:28:53;;;;;;;16.73;4.88;;;;;;;15.91;47.57;100378.72;5053546;28;20912;-74
2023/06/02 08:31:20;;;;;;;12.30;4.68;;;;;;;16.09;47.26;100376.41;5053603;28;20131;-74
2023/06/02 08:33:47;;;;;;;12.30;4.75;;;;;;;16.21;46.53;100385.09;5053749;28;20032;-75
2023/06/02 08:36:17;;;;;;;12.93;3.88;;;;;;;16.22;46.71;100380.44;5053076;28;20130;-75
2023/06/02 08:38:44;;;;;;;16.42;4.18;;;;;;;16.24;46.34;100377.38;5053061;28;20414;-75
2023/06/02 08:41:12;;;;;;;8.88;3.13;;;;;;;16.30;46.81;100371.56;5053514;28;20083;-73
2023/06/02 08:43:37;;;;;;;10.98;4.60;;;;;;;16.14;47.12;100386.53;5053501;28;20260;-75
2023/06/02 08:46:03;;;;;;;14.48;5.70;;;;;;;15.99;48.22;100380.03;5053364;28;20116;-74
2023/06/02 08:48:29;;;;;;;17.45;6.18;;;;;;;15.91;47.27;100370.47;5053088;28;20063;-75
2023/06/02 08:50:55;;;;;;;13.23;5.95;;;;;;;15.90;46.55;100376.25;5053069;28;20032;-73
2023/06/02 08:53:23;;;;;;;21.65;9.07;;;;;;;16.05;46.36;100380.84;5053672;28;20071;-75
2023/06/02 08:55:49;;;;;;;27.00;10.10;;;;;;;16.02;46.30;100376.75;5052993;28;20097;-76
2023/06/02 08:58:15;;;;;;;18.67;9.73;;;;;;;16.12;45.90;100380.50;5052380;28;20044;-74
2023/06/02 09:00:41;;;;;;;17.17;6.82;;;;;;;16.31;45.93;100378.69;5053323;28;20482;-74
2023/06/02 09:03:06;;;;;;;16.48;7.43;;;;;;;16.30;45.80;100370.72;5052769;28;20037;-73
2023/06/02 09:05:32;;;;;;;19.73;6.40;;;;;;;16.29;45.71;100386.41;5053290;28;20039;-73
2023/06/02 09:08:11;;;;;;;18.08;8.25;;;;;;;16.02;45.98;100379.50;5052917;28;20036;-74
2023/06/02 09:10:40;;;;;;;19.92;8.23;;;;;;;16.10;47.23;100375.31;5053477;28;20033;-73
2023/06/02 09:13:09;;;;;;;15.75;6.72;;;;;;;16.32;46.88;100374.84;5052969;28;20020;-75
2023/06/02 09:15:35;;;;;;;17.65;6.70;;;;;;;16.53;47.24;100373.84;5053195;28;20058;-73
2023/06/02 09:18:12;;;;;;;26.88;8.38;;;;;;;16.57;45.35;100369.38;5052659;28;20486;-73
2023/06/02 09:20:39;;;;;;;13.27;7.22;;;;;;;16.41;47.13;100365.97;5053023;28;20135;-73
2023/06/02 09:23:05;;;;;;;22.85;5.68;;;;;;;16.45;47.27;100364.28;5053283;28;20033;-73
2023/06/02 09:25:32;;;;;;;16.65;5.80;;;;;;;16.84;46.19;100365.22;5053403;28;20225;-73
2023/06/02 09:27:59;;;;;;;8.40;4.60;;;;;;;16.63;47.39;100359.97;5052883;28;20029;-73
2023/06/02 09:30:26;;;;;;;11.30;4.68;;;;;;;16.74;47.18;100368.13;5052717;28;20036;-74
2023/06/02 09:32:59;;;;;;;17.20;6.00;;;;;;;17.05;45.54;100362.25;5052959;28;20061;-74
2023/06/02 09:35:41;;;;;;;13.37;4.70;;;;;;;17.17;45.80;100363.81;5052716;28;20097;-76
2023/06/02 09:38:10;;;;;;;11.05;5.30;;;;;;;17.08;47.14;100364.44;5051371;28;20029;-75
2023/06/02 09:40:40;;;;;;;16.15;4.97;;;;;;;17.31;46.83;100364.69;5052705;28;20516;-74
2023/06/02 09:43:09;;;;;;;9.15;4.15;;;;;;;17.47;46.16;100356.25;5052740;28;20028;-73
2023/06/02 09:45:58;;;;;;;9.77;4.63;;;;;;;17.47;46.46;100361.75;5052780;28;20037;-73
2023/06/02 09:48:23;;;;;;;10.38;3.53;;;;;;;17.70;45.39;100354.53;5052033;28;20123;-73
2023/06/02 09:50:49;;;;;;;16.43;4.93;;;;;;;18.12;45.15;100347.53;5056519;28;20112;-74
2023/06/02 09:53:17;;;;;;;13.27;5.30;;;;;;;17.99;46.26;100354.63;5055201;28;20280;-74
2023/06/02 09:55:44;;;;;;;13.43;4.18;;;;;;;17.71;45.81;100352.59;5056884;28;20068;-74
2023/06/02 09:58:09;;;;;;;12.82;5.70;;;;;;;17.61;45.90;100346.09;5056118;28;20036;-74
2023/06/02 10:00:37;;;;;;;8.02;4.50;;;;;;;17.67;45.97;100343.28;5056820;28;20039;-74
2023/06/02 10:03:04;;;;;;;24.33;7.47;;;;;;;17.76;47.36;100344.22;5056535;28;20032;-74
2023/06/02 10:05:30;;;;;;;19.40;4.85;;;;;;;17.96;45.89;100356.03;5056423;28;20045;-75
2023/06/02 10:08:04;;;;;;;15.43;5.30;;;;;;;17.74;46.15;100346.47;5054411;28;20035;-73
2023/06/02 10:10:34;;;;;;;13.00;4.32;;;;;;;17.89;45.58;100342.66;5056245;28;20504;-74
2023/06/02 10:13:23;;;;;;;10.32;5.32;;;;;;;17.99;45.15;100349.13;5056205;28;20029;-75
2023/06/02 10:16:15;;;;;;;18.15;5.00;;;;;;;18.14;45.88;100339.78;5056511;28;20027;-75
2023/06/02 10:18:56;;;;;;;10.77;4.95;;;;;;;17.88;46.80;100345.72;5055742;28;20040;-74
2023/06/02 10:21:42;;;;;;;10.40;4.15;;;;;;;18.21;45.53;100340.22;5055665;28;20423;-73
2023/06/02 10:24:45;;;;;;;14.40;5.18;;;;;;;18.33;44.88;100344.47;5056299;28;20028;-72
2023/06/02 10:27:23;;;;;;;9.77;5.22;;;;;;;18.23;46.51;100337.97;5055770;28;20439;-74
2023/06/02 10:29:55;;;;;;;9.50;4.40;;;;;;;18.23;45.88;100348.19;5055175;28;20094;-74
2023/06/02 10:32:24;;;;;;;10.95;4.40;;;;;;;18.44;46.38;100345.91;5054950;28;20032;-75
2023/06/02 10:34:51;;;;;;;22.88;4.65;;;;;;;18.26;45.78;100342.91;5055712;28;20036;-72
2023/06/02 10:37:17;;;;;;;10.77;4.43;;;;;;;18.55;45.66;100344.56;5055591;28;20486;-76
2023/06/02 10:39:43;;;;;;;11.75;4.95;;;;;;;18.93;45.87;100337.25;5054752;28;20502;-72
2023/06/02 10:42:10;;;;;;;12.90;5.47;;;;;;;18.76;45.04;100338.66;5055500;28;20047;-72
2023/06/02 10:44:35;;;;;;;9.48;4.50;;;;;;;18.85;45.04;100332.44;5055219;28;20253;-72
2023/06/02 10:47:19;;;;;;;14.20;5.13;;;;;;;18.65;45.10;100331.72;5055193;28;20037;-72
2023/06/02 10:49:55;;;;;;;14.57;4.95;;;;;;;18.51;46.07;100337.22;5054826;28;20028;-72
2023/06/02 10:52:21;;;;;;;25.98;5.28;;;;;;;18.70;44.95;100331.59;5054765;28;20391;-72
2023/06/02 10:55:08;;;;;;;14.05;7.18;;;;;;;19.09;44.67;100339.69;5056149;28;20400;-73
2023/06/02 10:57:58;;;;;;;15.88;5.47;;;;;;;19.19;46.07;100333.97;5055615;28;20036;-72
2023/06/02 11:00:35;;;;;;;11.40;6.22;;;;;;;19.34;46.69;100340.28;5055309;28;20133;-73
2023/06/02 11:03:17;;;;;;;16.00;5.32;;;;;;;19.44;44.52;100334.53;5055729;28;20047;-73
2023/06/02 11:05:43;;;;;;;20.77;6.35;;;;;;;19.30;44.43;100339.28;5055579;28;20390;-73
2023/06/02 11:08:15;;;;;;;15.55;5.45;;;;;;;19.29;44.66;100332.09;5054142;28;20040;-72
2023/06/02 11:10:48;;;;;;;12.82;5.60;;;;;;;19.65;43.93;100328.50;5055007;28;20048;-74
2023/06/02 11:13:14;;;;;;;15.63;6.72;;;;;;;19.60;44.18;100332.22;5055505;28;20033;-72
2023/06/02 11:16:00;;;;;;;18.70;7.50;;;;;;;19.87;43.77;100329.66;5055446;28;20037;-73
2023/06/02 11:18:27;;;;;;;26.48;5.55;;;;;;;20.09;44.11;100325.28;5049988;28;20049;-74
2023/06/02 11:20:54;;;;;;;12.15;6.00;;;;;;;20.33;43.17;100324.13;5054923;28;20056;-74